Weather at Trollhättan-Vänersborg Airport

Public forecast

Using degrees Celsius for public forecast. Weather courtesy of forecast.io.

Current aviation weather report (METAR) for Trollhättan-Vänersborg Airport

2024/07/14 18:50 (retrieved 29 minutes ago)

ESGT 141850Z AUTO 21007KT 9999 NCD 16/13 Q1009

Closest aviation forecast (TAF) to Trollhättan-Vänersborg Airport

Closest forecast is Göteborg Landvetter Airport, 39.4 nm (73.0 km) S.

2024/07/14 18:33 (retrieved 46 minutes ago)

TAF ESGG 141730Z 1418/1518 22011KT 9999 BKN020 PROB40 1418/1502 SCT030CB TEMPO 1502/1515 4000 SHRA BKN012 BKN020CB PROB40 1509/1515 BKN009